Liberal, KS (67901)

8:25 PM CST on November 28, 2014 (GMT -0600)
Bozarth Farm 3.5E Liberal | Change Station
CLOSE
Current Station
Personal Weather Station
Location: Liberal, KS
Elevation: 2785 ft
Nearby Weather Stations

Elev 2785 ft 37.02 °N, 100.86 °W | Updated 14 minutes ago

Clear
Clear
46.8 °F
Feels Like 47 °F
N
2.0
Wind Variable Wind from WSW
Gusts 4.0 mph

Today
High -- | Low -- °F
--% Chance of Precip.
Yesterday
High -- | Low -- °F
Precip. -- in
7:35 AM 5:27 PM
Waxing Crescent, 46% visible
Pressure 29.78 in
Visibility 10.0 miles
Clouds Clear
Windchill 47 °F
Dew Point 25 °F
Humidity 43%
Rainfall 0.00 in
Snow Depth Not available.
UV 0 out of 12
Pollen .10 out of 12
Air Quality Not available.
Flu Activity Not available.
METAR KLBL 290155Z AUTO 15003KT 10SM CLR 12/M06 A2978 RMK AO1

More Conditions Fewer Conditions

Pressure 29.78 in
Visibility 10.0 miles
Clouds Clear
Windchill 47 °F
Dew Point 25 °F
Humidity 43%
Rainfall 0.00 in
Snow Depth Not available.
UV 0 out of 12
Pollen .10 out of 12
Air Quality Not available.
Flu Activity Not available.
METAR KLBL 290155Z AUTO 15003KT 10SM CLR 12/M06 A2978 RMK AO1

More Conditions Fewer Conditions

10-Day Weather Forecast

Almanac

Astronomy

Nov. 28, 2014 Rise Set
Actual Time
Civil Twilight
Nautical Twilight
Astronomical Twilight
Moon
Length of Visible Light
Length of Day
Tomorrow will be .
, % of the Moon is Illuminated

Today's Extremes

State Highs State Lows

Community

WunderPhotos

Upload Photos

1,774,375 photos uploaded!

WunderBlogs® & News

Nearby

Air Quality

  Air Quality AQ Index Pollutant
Not available.

Snow Depth

Station Depth Elevation

Earthquake Activity

City Distance Mag. Time & Date
Minimum magnitude displayed is 2.5.

Coastal Water Temperatures

Place Temperature

Nearby Weather Stations